Time;durP1;ratioP1;P1;durP2;ratioP2;P2;SDS_P1;SDS_P2;PMS_P1;PMS_P2;Temp;Humidity;BMP_temperature;BMP_pressure;BME280_temperature;BME280_humidity;BME280_pressure;Samples;Min_cycle;Max_cycle;Signal;HPM_P1;HPM_P2
2023/05/08 00:01:17;;;;;;;10.03;9.13;;;18.80;98.20;;;;;;5055948;28;20449;-56
2023/05/08 00:03:44;;;;;;;10.70;9.80;;;18.70;98.30;;;;;;5056037;28;20446;-56
2023/05/08 00:06:12;;;;;;;10.40;9.50;;;18.70;98.30;;;;;;5055878;28;20445;-56
2023/05/08 00:08:40;;;;;;;11.20;10.20;;;18.70;98.30;;;;;;5055571;28;20469;-56
2023/05/08 00:11:07;;;;;;;10.23;9.33;;;18.70;98.20;;;;;;5055741;28;20585;-56
2023/05/08 00:13:34;;;;;;;9.13;8.43;;;18.70;98.40;;;;;;5055310;28;20997;-56
2023/05/08 00:16:01;;;;;;;10.87;10.07;;;18.70;98.50;;;;;;5055637;28;20451;-56
2023/05/08 00:18:27;;;;;;;9.87;9.07;;;18.70;98.60;;;;;;5055442;28;20986;-56
2023/05/08 00:20:54;;;;;;;11.13;10.17;;;18.60;98.60;;;;;;5055619;28;20458;-56
2023/05/08 00:23:22;;;;;;;10.40;9.60;;;18.70;98.50;;;;;;5055249;28;20972;-56
2023/05/08 00:25:49;;;;;;;12.03;10.60;;;18.60;98.30;;;;;;5055297;28;20466;-56
2023/05/08 00:28:15;;;;;;;10.27;9.40;;;18.60;98.30;;;;;;5053445;28;20452;-55
2023/05/08 00:30:42;;;;;;;10.33;9.53;;;18.60;98.40;;;;;;5054038;28;20454;-56
2023/05/08 00:33:10;;;;;;;11.13;10.23;;;18.60;98.60;;;;;;5053312;28;20455;-57
2023/05/08 00:35:36;;;;;;;11.00;10.10;;;18.60;98.60;;;;;;5054049;28;20506;-56
2023/05/08 00:38:03;;;;;;;11.50;10.50;;;18.60;98.60;;;;;;5053955;28;20450;-56
2023/05/08 00:40:31;;;;;;;10.20;9.40;;;18.50;98.60;;;;;;5053596;28;20483;-56
2023/05/08 00:42:58;;;;;;;10.57;9.40;;;18.50;98.50;;;;;;5053646;28;20449;-56
2023/05/08 00:45:27;;;;;;;11.40;10.50;;;18.50;98.60;;;;;;5053063;28;20470;-56
2023/05/08 00:47:54;;;;;;;10.73;9.83;;;18.40;98.60;;;;;;5054691;28;20951;-56
2023/05/08 00:50:21;;;;;;;11.63;10.73;;;18.40;98.60;;;;;;5054645;28;20823;-57
2023/05/08 00:52:47;;;;;;;11.67;10.67;;;18.40;98.70;;;;;;5054555;28;21005;-56
2023/05/08 00:55:14;;;;;;;12.73;11.57;;;18.40;98.70;;;;;;5054839;28;20496;-56
2023/05/08 00:57:43;;;;;;;11.77;10.67;;;18.40;99.20;;;;;;5054547;28;20966;-56
2023/05/08 01:00:11;;;;;;;12.03;10.83;;;18.40;98.90;;;;;;5054766;28;20453;-56
2023/05/08 01:02:39;;;;;;;12.43;11.33;;;18.40;99.10;;;;;;5054709;28;20461;-57
2023/05/08 01:05:07;;;;;;;12.00;10.80;;;18.40;99.10;;;;;;5054611;28;20469;-57
2023/05/08 01:07:33;;;;;;;11.23;10.40;;;18.40;99.10;;;;;;5054575;28;20473;-56
2023/05/08 01:10:00;;;;;;;12.07;10.87;;;18.40;99.20;;;;;;5054640;28;20437;-56
2023/05/08 01:12:36;;;;;;;12.23;11.20;;;18.40;99.20;;;;;;5054527;28;20562;-56
2023/05/08 01:15:15;;;;;;;11.80;10.80;;;18.30;99.20;;;;;;5054408;28;20461;-57
2023/05/08 01:17:54;;;;;;;11.37;10.37;;;18.30;99.30;;;;;;5054511;28;20520;-57
2023/05/08 01:20:31;;;;;;;10.83;9.93;;;18.30;99.30;;;;;;5054445;28;20483;-57
2023/05/08 01:23:17;;;;;;;11.20;10.30;;;18.30;99.20;;;;;;5054390;28;20422;-56
2023/05/08 01:26:13;;;;;;;11.40;10.40;;;18.30;99.10;;;;;;5054298;28;20469;-56
2023/05/08 01:29:10;;;;;;;10.73;9.73;;;18.30;98.90;;;;;;5054332;28;20811;-56
2023/05/08 01:31:50;;;;;;;10.93;10.07;;;18.30;98.70;;;;;;5054692;28;20466;-56
2023/05/08 01:34:23;;;;;;;10.97;9.97;;;18.20;98.50;;;;;;5054122;28;20484;-56
2023/05/08 01:36:54;;;;;;;9.80;9.10;;;18.20;98.50;;;;;;5054087;28;20450;-57
2023/05/08 01:39:27;;;;;;;11.57;10.70;;;18.10;98.40;;;;;;5054039;28;20438;-56
2023/05/08 01:42:00;;;;;;;9.37;8.57;;;18.10;98.40;;;;;;5053988;28;20434;-56
2023/05/08 01:44:33;;;;;;;9.30;8.60;;;18.00;98.40;;;;;;5053924;28;20470;-56
2023/05/08 01:47:06;;;;;;;9.20;8.33;;;17.90;98.30;;;;;;5053971;28;20481;-56
2023/05/08 01:49:39;;;;;;;8.07;7.47;;;17.90;98.30;;;;;;5053729;28;20429;-56
2023/05/08 01:52:12;;;;;;;9.50;8.80;;;17.90;98.40;;;;;;5053217;28;20469;-56
2023/05/08 01:54:44;;;;;;;10.13;8.60;;;17.90;98.60;;;;;;5053845;28;20492;-56
2023/05/08 01:57:13;;;;;;;9.40;8.67;;;17.90;98.60;;;;;;5053774;28;20448;-57
2023/05/08 01:59:42;;;;;;;8.40;7.70;;;17.80;99.00;;;;;;5053689;28;20442;-56
2023/05/08 02:02:10;;;;;;;9.30;8.60;;;17.80;98.80;;;;;;5053667;28;20477;-56
2023/05/08 02:04:39;;;;;;;8.80;8.10;;;17.80;98.80;;;;;;5053545;28;20465;-56
2023/05/08 02:07:07;;;;;;;8.07;7.33;;;17.80;98.90;;;;;;5054184;28;20449;-56
2023/05/08 02:09:34;;;;;;;7.80;7.20;;;17.80;98.90;;;;;;5053164;28;20460;-56
2023/05/08 02:12:02;;;;;;;9.03;7.97;;;17.80;98.90;;;;;;5053370;28;20485;-56
2023/05/08 02:14:30;;;;;;;7.63;7.03;;;17.80;98.90;;;;;;5053519;28;20683;-56
2023/05/08 02:16:59;;;;;;;7.50;6.90;;;17.80;99.00;;;;;;5053510;28;20464;-56
2023/05/08 02:19:26;;;;;;;7.73;6.97;;;17.80;99.00;;;;;;5053360;28;20479;-56
2023/05/08 02:21:57;;;;;;;8.77;7.83;;;17.80;98.90;;;;;;5053559;28;20472;-56
2023/05/08 02:24:24;;;;;;;9.20;8.43;;;17.80;98.80;;;;;;5053533;28;20473;-56
2023/05/08 02:26:54;;;;;;;8.50;7.90;;;17.70;98.70;;;;;;5054037;28;20441;-57
2023/05/08 02:29:22;;;;;;;8.13;7.43;;;17.70;98.70;;;;;;5056039;28;20493;-56
2023/05/08 02:31:51;;;;;;;8.47;7.77;;;17.70;98.70;;;;;;5054727;28;20484;-57
2023/05/08 02:34:20;;;;;;;9.77;9.07;;;17.70;98.80;;;;;;5054054;28;20472;-57
2023/05/08 02:36:49;;;;;;;9.10;8.40;;;17.60;98.80;;;;;;5053906;28;20445;-57
2023/05/08 02:39:19;;;;;;;8.73;8.03;;;17.60;99.20;;;;;;5053563;28;20450;-56
2023/05/08 02:41:46;;;;;;;9.50;8.70;;;17.60;98.80;;;;;;5053512;28;20450;-56
2023/05/08 02:44:13;;;;;;;9.03;8.27;;;17.60;98.90;;;;;;5053112;28;20991;-56
2023/05/08 02:46:48;;;;;;;8.93;8.13;;;17.60;99.00;;;;;;5053479;28;20503;-56
2023/05/08 02:49:25;;;;;;;8.80;8.00;;;17.60;99.10;;;;;;5053415;28;20440;-56
2023/05/08 02:51:57;;;;;;;8.37;7.80;;;17.50;99.00;;;;;;5053175;28;20461;-56
2023/05/08 02:54:33;;;;;;;8.50;7.80;;;17.50;99.00;;;;;;5053112;28;20469;-56
2023/05/08 02:57:06;;;;;;;7.50;6.93;;;17.50;99.00;;;;;;5053284;28;20426;-57
2023/05/08 02:59:38;;;;;;;8.13;7.47;;;17.40;99.10;;;;;;5052783;28;20830;-56
2023/05/08 03:02:10;;;;;;;8.00;7.30;;;17.40;99.10;;;;;;5054364;28;20434;-57
2023/05/08 03:04:42;;;;;;;8.60;7.87;;;17.40;99.10;;;;;;5056702;28;20493;-56
2023/05/08 03:07:10;;;;;;;8.13;7.40;;;17.40;99.10;;;;;;5057073;28;20464;-56
2023/05/08 03:09:42;;;;;;;7.90;7.20;;;17.40;99.10;;;;;;5057267;28;20530;-56
2023/05/08 03:12:15;;;;;;;8.60;7.80;;;17.40;99.10;;;;;;5056819;28;20519;-56
2023/05/08 03:14:46;;;;;;;9.57;8.67;;;17.40;99.00;;;;;;5056896;28;20995;-56
2023/05/08 03:17:16;;;;;;;12.63;8.50;;;17.40;99.00;;;;;;5056930;28;20437;-56
2023/05/08 03:19:46;;;;;;;10.50;9.60;;;17.40;99.00;;;;;;5056725;28;20472;-56
2023/05/08 03:22:15;;;;;;;9.80;8.90;;;17.30;99.10;;;;;;5056652;28;20434;-56
2023/05/08 03:24:44;;;;;;;9.97;9.17;;;17.20;99.10;;;;;;5056743;28;20535;-56
2023/05/08 03:27:11;;;;;;;8.73;8.07;;;17.20;99.10;;;;;;5056351;28;20449;-56
2023/05/08 03:29:39;;;;;;;9.53;8.63;;;17.20;99.00;;;;;;5056605;28;20449;-56
2023/05/08 03:32:07;;;;;;;9.07;8.37;;;17.20;98.80;;;;;;5056527;28;20481;-56
2023/05/08 03:34:35;;;;;;;8.30;7.60;;;17.10;98.60;;;;;;5056400;28;20473;-56
2023/05/08 03:37:02;;;;;;;7.90;7.30;;;17.10;98.60;;;;;;5056469;28;20535;-56
2023/05/08 03:39:29;;;;;;;9.20;8.50;;;17.10;98.60;;;;;;5056379;28;20445;-56
2023/05/08 03:41:57;;;;;;;8.83;8.13;;;17.10;98.60;;;;;;5056134;28;20830;-56
2023/05/08 03:44:25;;;;;;;8.53;7.83;;;17.00;98.50;;;;;;5056230;28;20461;-56
2023/05/08 03:46:56;;;;;;;10.20;9.23;;;17.00;98.50;;;;;;5056326;28;20449;-57
2023/05/08 03:49:25;;;;;;;10.50;9.40;;;17.00;98.40;;;;;;5057149;28;20481;-56
2023/05/08 03:51:53;;;;;;;9.67;8.87;;;16.90;98.30;;;;;;5056200;28;20449;-56
2023/05/08 03:54:24;;;;;;;9.67;8.87;;;16.90;98.30;;;;;;5055934;28;20995;-56
2023/05/08 03:56:51;;;;;;;9.03;8.33;;;16.90;98.40;;;;;;5056255;28;20533;-56
2023/05/08 03:59:26;;;;;;;10.10;9.30;;;16.90;98.40;;;;;;5056275;28;20456;-56
2023/05/08 04:01:59;;;;;;;8.63;7.90;;;16.80;98.30;;;;;;5056362;28;20438;-56
2023/05/08 04:04:33;;;;;;;8.67;8.00;;;16.80;98.20;;;;;;5056250;28;20476;-56
2023/05/08 04:07:07;;;;;;;9.40;8.57;;;16.80;98.10;;;;;;5056116;28;20525;-56
2023/05/08 04:09:38;;;;;;;8.83;8.03;;;16.80;98.10;;;;;;5055954;28;20947;-56
2023/05/08 04:12:09;;;;;;;9.17;8.40;;;16.70;98.00;;;;;;5055766;28;20975;-56
2023/05/08 04:14:43;;;;;;;9.40;8.60;;;16.70;98.10;;;;;;5055125;28;20465;-56
2023/05/08 04:17:13;;;;;;;10.50;9.40;;;16.70;98.10;;;;;;5056143;28;20461;-56
2023/05/08 04:19:48;;;;;;;10.40;9.27;;;16.70;98.30;;;;;;5056276;28;20434;-56
2023/05/08 04:22:17;;;;;;;10.10;9.30;;;16.70;98.30;;;;;;5056200;28;20456;-57
2023/05/08 04:24:46;;;;;;;9.40;8.50;;;16.70;98.20;;;;;;5055921;28;20476;-57
2023/05/08 04:27:13;;;;;;;10.10;9.20;;;16.70;98.20;;;;;;5055748;28;20450;-57
2023/05/08 04:29:42;;;;;;;8.37;7.77;;;16.70;98.20;;;;;;5055503;28;20441;-57
2023/05/08 04:32:09;;;;;;;9.87;9.00;;;16.60;98.30;;;;;;5055211;28;20449;-56
2023/05/08 04:34:36;;;;;;;9.70;8.80;;;16.60;98.60;;;;;;5055366;28;20492;-56
2023/05/08 04:37:03;;;;;;;8.63;7.93;;;16.70;98.30;;;;;;5055353;28;20453;-57
2023/05/08 04:39:30;;;;;;;9.20;8.40;;;16.60;98.30;;;;;;5055219;28;20445;-57
2023/05/08 04:42:01;;;;;;;14.90;9.70;;;16.60;98.30;;;;;;5055221;28;20448;-56
2023/05/08 04:44:28;;;;;;;10.10;8.63;;;16.60;98.30;;;;;;5055092;28;20531;-57
2023/05/08 04:46:56;;;;;;;9.80;8.90;;;16.60;98.30;;;;;;5055202;28;20460;-56
2023/05/08 04:49:23;;;;;;;10.47;9.57;;;16.60;98.30;;;;;;5054766;28;20966;-56
2023/05/08 04:51:49;;;;;;;11.30;8.20;;;16.60;98.40;;;;;;5055048;28;20445;-56
2023/05/08 04:54:16;;;;;;;10.17;9.27;;;16.70;98.50;;;;;;5054927;28;20489;-56
2023/05/08 04:56:43;;;;;;;10.50;9.53;;;16.70;98.60;;;;;;5055033;28;20511;-56
2023/05/08 04:59:10;;;;;;;9.47;8.70;;;16.70;98.70;;;;;;5054827;28;20485;-56
2023/05/08 05:01:37;;;;;;;9.80;9.00;;;16.70;98.80;;;;;;5054899;28;20452;-56
2023/05/08 05:04:05;;;;;;;10.37;9.47;;;16.70;98.80;;;;;;5054797;28;20461;-56
2023/05/08 05:06:32;;;;;;;10.83;9.93;;;16.70;98.90;;;;;;5054682;28;20464;-56
2023/05/08 05:08:59;;;;;;;10.40;9.43;;;16.80;98.90;;;;;;5054424;28;20511;-56
2023/05/08 05:11:25;;;;;;;9.70;8.90;;;16.80;98.90;;;;;;5054661;28;20852;-56
2023/05/08 05:13:52;;;;;;;11.90;9.93;;;16.80;99.00;;;;;;5054433;28;20934;-56
2023/05/08 05:16:19;;;;;;;9.30;8.50;;;16.90;99.10;;;;;;5054480;28;20446;-56
2023/05/08 05:18:46;;;;;;;9.33;8.53;;;16.90;99.60;;;;;;5054304;28;20454;-56
2023/05/08 05:21:14;;;;;;;10.80;9.77;;;16.90;99.50;;;;;;5054493;28;20492;-56
2023/05/08 05:23:41;;;;;;;9.03;8.23;;;16.90;99.70;;;;;;5054210;28;20948;-57
2023/05/08 05:26:07;;;;;;;10.40;9.50;;;17.00;99.80;;;;;;5054214;28;20967;-56
2023/05/08 05:28:34;;;;;;;10.20;9.20;;;17.10;99.90;;;;;;5054567;28;20446;-56
2023/05/08 05:31:01;;;;;;;10.87;9.70;;;17.10;99.90;;;;;;5054947;28;20452;-57
2023/05/08 05:33:28;;;;;;;9.97;9.07;;;17.20;99.90;;;;;;5055780;28;20492;-55
2023/05/08 05:35:54;;;;;;;11.57;10.47;;;17.30;99.90;;;;;;5055011;28;20469;-57
2023/05/08 05:38:22;;;;;;;12.63;11.30;;;17.30;99.90;;;;;;5056246;28;20475;-57
2023/05/08 05:40:49;;;;;;;13.27;11.97;;;17.40;99.90;;;;;;5055263;28;20437;-57
2023/05/08 05:43:16;;;;;;;12.67;11.67;;;17.50;99.90;;;;;;5053715;28;20449;-54
2023/05/08 05:45:43;;;;;;;10.33;9.43;;;17.60;99.90;;;;;;5053147;28;20465;-57
2023/05/08 05:48:09;;;;;;;12.57;11.20;;;17.60;99.90;;;;;;5053112;28;20458;-57
2023/05/08 05:50:36;;;;;;;12.83;11.63;;;17.60;99.90;;;;;;5052918;28;20940;-55
2023/05/08 05:53:03;;;;;;;11.87;10.87;;;17.70;99.90;;;;;;5052150;28;20576;-56
2023/05/08 05:55:31;;;;;;;13.10;12.00;;;17.70;99.90;;;;;;5052366;28;20462;-56
2023/05/08 05:57:58;;;;;;;13.40;12.10;;;17.80;99.90;;;;;;5051757;28;20974;-55
2023/05/08 06:00:25;;;;;;;11.93;10.87;;;17.90;99.90;;;;;;5052506;28;20524;-55
2023/05/08 06:02:52;;;;;;;11.70;10.60;;;17.90;99.90;;;;;;5052372;28;20485;-55
2023/05/08 06:05:18;;;;;;;13.50;12.40;;;18.00;99.90;;;;;;5052951;28;20469;-55
2023/05/08 06:07:46;;;;;;;16.20;14.70;;;18.10;99.90;;;;;;5065274;28;20810;-55
2023/05/08 06:10:13;;;;;;;16.20;14.40;;;18.20;99.90;;;;;;5071880;28;20464;-55
2023/05/08 06:12:41;;;;;;;16.97;15.37;;;18.30;99.90;;;;;;5071553;28;20962;-56
2023/05/08 06:15:08;;;;;;;13.00;11.80;;;18.50;99.90;;;;;;5071878;28;21021;-56
2023/05/08 06:17:35;;;;;;;17.60;16.00;;;18.50;99.90;;;;;;5071337;28;20816;-56
2023/05/08 06:20:02;;;;;;;15.30;13.80;;;18.70;99.90;;;;;;5071868;28;20954;-56
2023/05/08 06:22:30;;;;;;;13.50;12.30;;;18.80;99.90;;;;;;5071734;28;20528;-56
2023/05/08 06:24:57;;;;;;;18.50;15.93;;;19.00;99.60;;;;;;5072264;28;20524;-56
2023/05/08 06:27:24;;;;;;;15.53;14.23;;;19.10;99.10;;;;;;5073015;28;20456;-54
2023/05/08 06:29:52;;;;;;;17.03;15.43;;;19.30;98.70;;;;;;5071512;28;20444;-56
2023/05/08 06:32:20;;;;;;;14.47;13.27;;;19.40;98.70;;;;;;5071485;28;20800;-56
2023/05/08 06:34:47;;;;;;;15.40;13.83;;;19.40;98.80;;;;;;5071319;28;21011;-55
2023/05/08 06:37:17;;;;;;;18.67;16.97;;;19.40;98.70;;;;;;5071654;28;20445;-56
2023/05/08 06:39:43;;;;;;;17.57;15.77;;;19.60;98.60;;;;;;5071559;28;20517;-57
2023/05/08 06:42:10;;;;;;;19.20;17.17;;;19.70;98.10;;;;;;5072227;28;20448;-56
2023/05/08 06:44:37;;;;;;;19.07;17.10;;;19.70;97.90;;;;;;5072458;28;20480;-56
2023/05/08 06:47:05;;;;;;;19.80;17.87;;;19.70;97.80;;;;;;5071694;28;20449;-56
2023/05/08 06:49:32;;;;;;;17.73;15.90;;;19.70;97.60;;;;;;5071493;28;20478;-55
2023/05/08 06:51:59;;;;;;;19.43;16.30;;;19.70;97.70;;;;;;5071395;28;20453;-55
2023/05/08 06:54:26;;;;;;;19.30;17.33;;;19.80;97.50;;;;;;5070962;28;20511;-56
2023/05/08 06:56:53;;;;;;;17.77;16.07;;;19.90;96.80;;;;;;5071133;28;20456;-56
2023/05/08 06:59:20;;;;;;;17.73;16.03;;;20.10;96.40;;;;;;5071113;28;20444;-56
2023/05/08 07:01:46;;;;;;;17.70;16.00;;;20.30;96.10;;;;;;5071950;28;20448;-56
2023/05/08 07:04:14;;;;;;;18.53;16.73;;;20.40;95.30;;;;;;5071632;28;20828;-55
2023/05/08 07:06:41;;;;;;;21.07;18.97;;;20.60;94.90;;;;;;5071276;28;20455;-55
2023/05/08 07:09:08;;;;;;;18.77;16.77;;;20.70;94.50;;;;;;5071543;28;20461;-56
2023/05/08 07:11:35;;;;;;;17.30;15.70;;;20.70;94.30;;;;;;5070672;28;20452;-55
2023/05/08 07:14:02;;;;;;;16.97;15.27;;;20.80;94.30;;;;;;5071670;28;20488;-56
2023/05/08 07:16:29;;;;;;;14.63;13.33;;;20.80;93.90;;;;;;5071156;28;20853;-55
2023/05/08 07:18:55;;;;;;;18.77;16.87;;;20.90;93.70;;;;;;5071985;28;20452;-56
2023/05/08 07:21:23;;;;;;;17.07;15.47;;;20.90;93.70;;;;;;5071849;28;20444;-56
2023/05/08 07:23:52;;;;;;;16.43;14.87;;;20.80;93.70;;;;;;5071336;28;20464;-55
2023/05/08 07:26:21;;;;;;;14.93;13.53;;;20.90;93.60;;;;;;5070838;28;20449;-55
2023/05/08 07:28:49;;;;;;;17.77;16.17;;;20.90;93.40;;;;;;5071369;28;20451;-55
2023/05/08 07:31:16;;;;;;;14.73;13.30;;;20.90;93.40;;;;;;5071584;28;20452;-56
2023/05/08 07:33:43;;;;;;;16.70;15.07;;;21.00;93.40;;;;;;5071497;28;20914;-56
2023/05/08 07:36:09;;;;;;;14.23;12.83;;;21.10;93.10;;;;;;5071182;28;20946;-56
2023/05/08 07:38:38;;;;;;;15.80;14.30;;;21.10;92.90;;;;;;5071491;28;20453;-55
2023/05/08 07:41:05;;;;;;;16.17;14.77;;;21.10;92.50;;;;;;5072014;28;20520;-56
2023/05/08 07:43:32;;;;;;;14.80;13.40;;;21.00;92.60;;;;;;5070677;28;20488;-55
2023/05/08 07:45:59;;;;;;;13.87;12.63;;;21.00;92.70;;;;;;5071081;28;20441;-56
2023/05/08 07:48:26;;;;;;;13.33;12.13;;;21.00;92.40;;;;;;5070774;28;20452;-55
2023/05/08 07:50:53;;;;;;;15.17;13.77;;;20.90;92.50;;;;;;5075134;28;20452;-55
2023/05/08 07:53:19;;;;;;;13.03;11.93;;;20.90;92.80;;;;;;5074571;28;20878;-55
2023/05/08 07:55:47;;;;;;;12.70;11.57;;;20.90;92.90;;;;;;5075034;28;20477;-56
2023/05/08 07:58:14;;;;;;;13.70;12.50;;;21.00;93.00;;;;;;5075155;28;20449;-55
2023/05/08 08:00:41;;;;;;;13.33;12.13;;;21.10;92.70;;;;;;5074732;28;20471;-55
2023/05/08 08:03:07;;;;;;;14.50;13.17;;;21.40;92.90;;;;;;5074122;28;20452;-55
2023/05/08 08:05:34;;;;;;;13.23;12.03;;;21.70;93.20;;;;;;5074080;28;20464;-57
2023/05/08 08:08:00;;;;;;;14.90;12.20;;;22.00;92.40;;;;;;5073928;28;20522;-56
2023/05/08 08:10:27;;;;;;;12.67;11.47;;;22.40;91.50;;;;;;5074453;28;20434;-56
2023/05/08 08:12:55;;;;;;;11.93;10.90;;;22.70;91.10;;;;;;5074860;28;20448;-56
2023/05/08 08:15:22;;;;;;;10.77;9.40;;;23.10;90.90;;;;;;5074593;28;20488;-56
2023/05/08 08:17:49;;;;;;;9.27;8.40;;;23.50;89.80;;;;;;5075523;28;20514;-56
2023/05/08 08:20:15;;;;;;;8.87;8.00;;;24.00;86.30;;;;;;5073903;28;20882;-56
2023/05/08 08:22:42;;;;;;;9.73;8.93;;;24.50;83.90;;;;;;5074156;28;20459;-56
2023/05/08 08:25:09;;;;;;;10.40;9.50;;;24.80;80.20;;;;;;5073389;28;20982;-56
2023/05/08 08:27:36;;;;;;;9.23;8.47;;;25.00;78.00;;;;;;5074718;28;20459;-55
2023/05/08 08:30:06;;;;;;;8.97;8.20;;;25.10;76.40;;;;;;5073848;28;20835;-56
2023/05/08 08:32:32;;;;;;;8.57;7.77;;;25.20;75.00;;;;;;5074571;28;20448;-56
2023/05/08 08:34:59;;;;;;;9.07;8.37;;;25.40;74.20;;;;;;5074322;28;20485;-56
2023/05/08 08:37:26;;;;;;;8.93;8.20;;;25.60;71.90;;;;;;5073994;28;20506;-55
2023/05/08 08:39:53;;;;;;;10.47;9.43;;;25.70;71.90;;;;;;5073468;28;20547;-56
2023/05/08 08:42:20;;;;;;;7.63;7.03;;;25.80;71.40;;;;;;5074199;28;20455;-56
2023/05/08 08:44:47;;;;;;;9.23;8.43;;;26.00;70.90;;;;;;5075350;28;20475;-56
2023/05/08 08:47:17;;;;;;;10.90;10.00;;;26.30;69.80;;;;;;5075005;28;20445;-56
2023/05/08 08:49:48;;;;;;;9.77;8.87;;;26.50;66.70;;;;;;5074558;28;20919;-56
2023/05/08 08:52:22;;;;;;;11.50;10.30;;;26.40;66.30;;;;;;5074649;28;20433;-55
2023/05/08 08:54:50;;;;;;;9.00;8.30;;;26.20;66.30;;;;;;5074631;28;20484;-56
2023/05/08 08:57:18;;;;;;;9.70;8.90;;;26.10;66.10;;;;;;5073456;28;20833;-56
2023/05/08 08:59:45;;;;;;;8.33;7.63;;;26.00;67.10;;;;;;5072962;28;20894;-55
2023/05/08 09:02:16;;;;;;;9.37;8.40;;;25.80;67.10;;;;;;5073284;28;20448;-55
2023/05/08 09:04:44;;;;;;;7.80;7.00;;;25.70;68.10;;;;;;5074131;28;20496;-55
2023/05/08 09:07:14;;;;;;;7.77;7.03;;;25.60;68.10;;;;;;5073469;28;20445;-55
2023/05/08 09:09:43;;;;;;;7.80;7.10;;;25.60;68.70;;;;;;5074214;28;20475;-56
2023/05/08 09:12:10;;;;;;;9.90;6.90;;;25.40;67.20;;;;;;5073941;28;20968;-56
2023/05/08 09:14:37;;;;;;;6.63;6.13;;;25.30;67.60;;;;;;5073844;28;21044;-56
2023/05/08 09:17:03;;;;;;;7.40;6.90;;;25.10;68.30;;;;;;5073207;28;20452;-56
2023/05/08 09:19:31;;;;;;;6.37;5.77;;;25.00;68.80;;;;;;5073153;28;20452;-55
2023/05/08 09:22:01;;;;;;;5.77;5.27;;;24.90;69.00;;;;;;5072904;28;20453;-56
2023/05/08 09:24:55;;;;;;;6.50;5.90;;;24.80;69.30;;;;;;5073685;28;20463;-56
2023/05/08 09:27:23;;;;;;;5.17;4.77;;;24.80;68.90;;;;;;5073338;28;20455;-55
2023/05/08 09:30:01;;;;;;;5.87;5.27;;;24.80;69.70;;;;;;5073708;28;20544;-55
2023/05/08 09:32:28;;;;;;;6.23;5.73;;;24.90;69.30;;;;;;5073421;28;20444;-55
2023/05/08 09:34:55;;;;;;;7.60;6.90;;;25.00;67.90;;;;;;5072593;28;20489;-55
2023/05/08 09:37:24;;;;;;;7.37;6.67;;;25.10;67.10;;;;;;5072911;28;20436;-54
2023/05/08 09:39:51;;;;;;;5.10;4.77;;;25.30;66.00;;;;;;5072335;28;20444;-55
2023/05/08 09:42:18;;;;;;;5.40;5.00;;;25.40;66.00;;;;;;5072598;28;20522;-55
2023/05/08 09:44:46;;;;;;;6.40;5.90;;;25.60;66.30;;;;;;5072737;28;20978;-54
2023/05/08 09:47:14;;;;;;;6.43;5.93;;;25.80;67.20;;;;;;5073174;28;20452;-55
2023/05/08 09:49:56;;;;;;;9.30;6.13;;;26.10;67.10;;;;;;5073505;28;20459;-54
2023/05/08 09:52:25;;;;;;;8.90;8.20;;;26.40;65.20;;;;;;5072200;28;20554;-54
2023/05/08 09:54:58;;;;;;;8.10;7.40;;;26.80;65.30;;;;;;5072621;28;20579;-55
2023/05/08 09:57:26;;;;;;;8.00;7.00;;;27.10;64.30;;;;;;5072052;28;20464;-55
2023/05/08 10:00:01;;;;;;;8.70;8.10;;;27.40;63.30;;;;;;5072983;28;20864;-56
2023/05/08 10:02:28;;;;;;;8.53;7.83;;;27.90;61.40;;;;;;5072067;28;20452;-55
2023/05/08 10:04:56;;;;;;;7.40;6.77;;;28.20;57.60;;;;;;5072147;28;20883;-55
2023/05/08 10:07:29;;;;;;;6.70;6.23;;;28.40;56.40;;;;;;5071880;28;20962;-55
2023/05/08 10:10:01;;;;;;;7.13;6.63;;;28.60;56.70;;;;;;5072041;28;20447;-55
2023/05/08 10:12:29;;;;;;;9.20;8.50;;;28.60;56.70;;;;;;5071070;28;20440;-55
2023/05/08 10:14:56;;;;;;;10.40;9.50;;;28.70;56.90;;;;;;5071782;28;20480;-55
2023/05/08 10:17:30;;;;;;;8.33;7.73;;;28.90;56.30;;;;;;5071959;28;20457;-55
2023/05/08 10:20:00;;;;;;;7.87;7.27;;;29.10;56.30;;;;;;5073766;28;20438;-55
2023/05/08 10:22:32;;;;;;;12.70;8.60;;;29.40;56.40;;;;;;5073412;28;20538;-55
2023/05/08 10:25:02;;;;;;;7.80;7.00;;;29.90;55.00;;;;;;5073128;28;20996;-55
2023/05/08 10:27:34;;;;;;;7.50;7.00;;;30.20;53.00;;;;;;5073225;28;20451;-55
2023/05/08 10:30:04;;;;;;;10.27;7.00;;;30.60;51.90;;;;;;5072393;28;20446;-54
2023/05/08 10:32:39;;;;;;;7.60;6.80;;;30.80;51.40;;;;;;5071351;28;20848;-54
2023/05/08 10:35:10;;;;;;;7.87;6.87;;;31.40;49.90;;;;;;5071904;28;20489;-55
2023/05/08 10:37:41;;;;;;;7.77;6.87;;;32.10;48.40;;;;;;5071998;28;20432;-54
2023/05/08 10:40:09;;;;;;;6.80;6.20;;;32.90;45.10;;;;;;5071923;28;20436;-55
2023/05/08 10:42:36;;;;;;;9.03;7.80;;;33.70;44.20;;;;;;5071675;28;20448;-55
2023/05/08 10:45:05;;;;;;;11.57;7.43;;;34.50;42.20;;;;;;5071179;28;20539;-55
2023/05/08 10:47:48;;;;;;;7.27;6.57;;;35.00;40.40;;;;;;5071245;28;20613;-55
2023/05/08 10:50:37;;;;;;;6.30;5.70;;;35.30;38.70;;;;;;5071696;28;20225;-55
2023/05/08 10:53:09;;;;;;;6.97;6.40;;;35.40;38.00;;;;;;5072058;28;20197;-55
2023/05/08 10:55:37;;;;;;;6.93;6.33;;;35.60;37.70;;;;;;5071788;28;20271;-55
2023/05/08 10:58:06;;;;;;;8.90;8.20;;;35.80;35.80;;;;;;5072482;28;20296;-55
2023/05/08 11:00:53;;;;;;;6.50;6.00;;;35.80;34.80;;;;;;5071726;28;20204;-55
2023/05/08 11:03:23;;;;;;;6.63;6.03;;;35.70;35.80;;;;;;5071028;28;20205;-55
2023/05/08 11:05:53;;;;;;;7.20;6.67;;;35.50;34.60;;;;;;5071819;28;20217;-55
2023/05/08 11:08:23;;;;;;;8.07;6.40;;;35.30;34.70;;;;;;5071343;28;20206;-54
2023/05/08 11:10:58;;;;;;;6.23;5.17;;;35.20;34.50;;;;;;5072165;28;20190;-55
2023/05/08 11:13:28;;;;;;;6.30;5.70;;;35.40;36.30;;;;;;5072111;28;20239;-55
2023/05/08 11:15:54;;;;;;;6.37;5.97;;;35.70;36.20;;;;;;5072697;28;20225;-55
2023/05/08 11:18:23;;;;;;;5.23;4.53;;;35.80;35.50;;;;;;5070900;28;20213;-55
2023/05/08 11:20:56;;;;;;;5.77;5.23;;;35.70;34.50;;;;;;5071465;28;20293;-55
2023/05/08 11:23:25;;;;;;;6.50;5.67;;;35.60;35.10;;;;;;5072716;28;20234;-55
2023/05/08 11:26:03;;;;;;;5.73;5.23;;;35.50;35.70;;;;;;5075432;28;20245;-54
2023/05/08 11:28:31;;;;;;;6.17;5.77;;;35.20;34.90;;;;;;5075229;28;20190;-55
2023/05/08 11:31:02;;;;;;;6.23;5.73;;;34.90;36.10;;;;;;5076588;28;20251;-55
2023/05/08 11:33:30;;;;;;;6.27;5.87;;;34.50;36.90;;;;;;5075719;28;20197;-55
2023/05/08 11:35:58;;;;;;;6.27;5.77;;;34.10;37.00;;;;;;5075157;28;20217;-55
2023/05/08 11:38:32;;;;;;;7.23;6.70;;;33.70;37.50;;;;;;5074322;28;20448;-55
2023/05/08 11:41:05;;;;;;;5.73;5.23;;;33.30;38.10;;;;;;5075449;28;20439;-55
2023/05/08 11:44:00;;;;;;;5.77;5.37;;;32.90;38.30;;;;;;5074777;28;20499;-56
2023/05/08 11:46:38;;;;;;;4.60;4.20;;;32.60;39.70;;;;;;5076364;28;20425;-54
2023/05/08 11:49:05;;;;;;;6.10;5.60;;;32.60;40.30;;;;;;5076835;28;20813;-54
2023/05/08 11:51:33;;;;;;;5.80;5.30;;;32.70;40.30;;;;;;5077070;28;20980;-55
2023/05/08 11:54:01;;;;;;;5.90;5.50;;;32.70;39.20;;;;;;5075376;28;20464;-54
2023/05/08 11:56:28;;;;;;;6.20;5.70;;;32.70;39.80;;;;;;5075313;28;20490;-54
2023/05/08 11:59:03;;;;;;;5.53;5.00;;;32.80;39.80;;;;;;5074265;28;20865;-54
2023/05/08 12:01:30;;;;;;;6.60;6.10;;;33.00;39.60;;;;;;5075367;28;20471;-55
2023/05/08 12:04:01;;;;;;;5.53;5.13;;;33.10;39.50;;;;;;5074304;28;20837;-55
2023/05/08 12:06:28;;;;;;;5.83;5.30;;;33.00;38.00;;;;;;5075021;28;20510;-55
2023/05/08 12:08:55;;;;;;;5.70;5.10;;;32.90;39.00;;;;;;5075054;28;20470;-55
2023/05/08 12:11:26;;;;;;;5.43;5.03;;;32.90;39.60;;;;;;5075703;28;20444;-55
2023/05/08 12:13:54;;;;;;;5.63;5.13;;;33.00;39.60;;;;;;5074077;28;20468;-55
2023/05/08 12:16:23;;;;;;;5.90;5.50;;;33.50;39.40;;;;;;5074513;28;20480;-55
2023/05/08 12:18:50;;;;;;;6.40;6.00;;;33.80;38.10;;;;;;5074081;28;20500;-55
2023/05/08 12:21:17;;;;;;;6.20;5.80;;;34.30;38.10;;;;;;5074530;28;20448;-55
2023/05/08 12:23:44;;;;;;;6.00;5.50;;;34.90;35.80;;;;;;5073944;28;20387;-55
2023/05/08 12:26:11;;;;;;;5.07;4.77;;;35.50;35.40;;;;;;5074854;28;20247;-55
2023/05/08 12:28:40;;;;;;;8.15;5.30;;;35.90;34.50;;;;;;5075119;28;20242;-55
2023/05/08 12:31:07;;;;;;;5.90;5.50;;;36.50;33.30;;;;;;5074185;28;20229;-55
2023/05/08 12:33:34;;;;;;;5.78;5.28;;;37.10;32.50;;;;;;5073786;28;20251;-56
2023/05/08 12:36:01;;;;;;;4.53;4.15;;;38.10;31.40;;;;;;5072766;28;20305;-55
2023/05/08 12:38:29;;;;;;;4.47;4.18;;;39.00;29.90;;;;;;5073375;28;20201;-55
2023/05/08 12:40:56;;;;;;;4.30;4.00;;;39.60;29.10;;;;;;5073992;28;20247;-55
2023/05/08 12:43:31;;;;;;;4.20;3.90;;;40.40;27.80;;;;;;5074037;28;20202;-55
2023/05/08 12:46:00;;;;;;;5.95;3.67;;;41.30;26.70;;;;;;5074371;28;20247;-55
2023/05/08 12:48:27;;;;;;;6.10;5.38;;;42.00;24.90;;;;;;5074717;28;20209;-55
2023/05/08 12:50:54;;;;;;;4.68;4.28;;;42.40;23.50;;;;;;5072932;28;20285;-55